createdAt,value
2019-03-23T00:09:02.969Z,42.4
2019-03-23T00:19:06.485Z,42.5
2019-03-23T00:29:10.019Z,42.6
2019-03-23T00:39:13.512Z,42.5
2019-03-23T00:49:17.033Z,42.6
2019-03-23T00:59:20.558Z,42.6
2019-03-23T01:09:24.087Z,42.5
2019-03-23T01:19:27.581Z,42.5
2019-03-23T01:29:31.095Z,42.6
2019-03-23T01:39:34.596Z,42.5
2019-03-23T01:49:38.120Z,42.5
2019-03-23T01:59:41.641Z,42.4
2019-03-23T02:09:45.137Z,42.4
2019-03-23T02:19:48.648Z,42.5
2019-03-23T02:29:52.174Z,42.4
2019-03-23T02:39:55.693Z,42.2
2019-03-23T02:49:59.242Z,42.1
2019-03-23T03:00:02.826Z,42.1
2019-03-23T03:10:06.358Z,42
2019-03-23T03:20:09.881Z,42
2019-03-23T03:30:13.554Z,42
2019-03-23T03:40:17.115Z,41.9
2019-03-23T03:50:20.628Z,41.9
2019-03-23T04:00:24.172Z,42
2019-03-23T04:10:27.677Z,41.9
2019-03-23T04:20:31.189Z,41.9
2019-03-23T04:30:34.686Z,41.9
2019-03-23T04:40:38.212Z,41.9
2019-03-23T04:50:41.726Z,41.8
2019-03-23T05:00:45.223Z,41.8
2019-03-23T05:10:48.735Z,41.8
2019-03-23T05:20:52.230Z,41.8
2019-03-23T05:30:55.748Z,41.7
2019-03-23T05:40:59.269Z,41.7
2019-03-23T05:51:02.792Z,41.7
2019-03-23T06:01:06.316Z,41.6
2019-03-23T06:11:09.823Z,41.6
2019-03-23T06:21:13.320Z,41.6
2019-03-23T06:31:16.819Z,41.5
2019-03-23T06:41:20.338Z,41.6
2019-03-23T06:51:23.851Z,41.5
2019-03-23T07:01:27.409Z,41.5
2019-03-23T07:11:30.923Z,41.4
2019-03-23T07:21:34.439Z,41.4
2019-03-23T07:31:37.904Z,41.5
2019-03-23T07:41:41.425Z,41.5
2019-03-23T07:51:44.934Z,41.4
2019-03-23T08:01:48.458Z,41.5
2019-03-23T08:11:51.961Z,41.4
2019-03-23T08:21:55.459Z,41.3
2019-03-23T08:31:58.960Z,41.3
2019-03-23T08:42:02.522Z,41.3
2019-03-23T08:52:06.020Z,41.2
2019-03-23T09:02:09.544Z,41.3
2019-03-23T09:12:13.026Z,41.3
2019-03-23T09:22:16.533Z,41.3
2019-03-23T09:32:20.024Z,41.2
2019-03-23T09:42:23.539Z,41.4
2019-03-23T09:52:27.051Z,41.4
2019-03-23T10:02:30.563Z,41.5
2019-03-23T10:12:34.077Z,41.4
2019-03-23T10:22:37.597Z,41.4
2019-03-23T10:32:41.096Z,41.3
2019-03-23T10:42:44.603Z,41.3
2019-03-23T10:52:48.100Z,41.3
2019-03-23T11:02:51.602Z,41.2
2019-03-23T11:12:55.109Z,41.1
2019-03-23T11:22:58.582Z,41.2
2019-03-23T11:33:02.075Z,41.2
2019-03-23T11:43:05.593Z,41.2
2019-03-23T11:53:09.098Z,41
2019-03-23T12:03:12.613Z,41.2
2019-03-23T12:13:16.126Z,40.9
2019-03-23T12:23:19.623Z,41.1
2019-03-23T12:33:23.125Z,40.9
2019-03-23T12:43:26.667Z,41
2019-03-23T12:53:30.165Z,40.7
2019-03-23T13:03:33.698Z,40.9
2019-03-23T13:13:37.166Z,40.7
2019-03-23T13:23:40.677Z,40.8
2019-03-23T13:33:44.168Z,40.8
2019-03-23T13:43:47.664Z,40.8
2019-03-23T13:53:51.186Z,40.8
2019-03-23T14:03:54.677Z,40.8
2019-03-23T14:13:58.161Z,40.8
2019-03-23T14:24:01.721Z,40.9
2019-03-23T14:34:05.210Z,40.8
2019-03-23T14:44:08.761Z,40.9
2019-03-23T14:54:12.284Z,40.8
2019-03-23T15:04:15.785Z,40.5
2019-03-23T15:14:19.297Z,40.8
2019-03-23T15:24:22.801Z,40.9
2019-03-23T15:34:26.286Z,40.9
2019-03-23T15:44:29.798Z,40.9
2019-03-23T15:54:33.330Z,40.8
2019-03-23T16:04:36.853Z,40.7
2019-03-23T16:14:40.364Z,40.9
2019-03-23T16:24:43.863Z,40.7
2019-03-23T16:34:47.370Z,40.6
2019-03-23T16:44:50.873Z,41
2019-03-23T16:54:54.380Z,41
2019-03-23T17:04:57.907Z,41.1
2019-03-23T17:15:01.411Z,41.3
2019-03-23T17:25:04.948Z,41.3
2019-03-23T17:35:08.449Z,41.4
2019-03-23T17:45:11.992Z,41.4
2019-03-23T17:55:15.515Z,41.5
2019-03-23T18:05:19.037Z,41.6
2019-03-23T18:15:22.556Z,41.7
2019-03-23T18:25:26.077Z,41.7
2019-03-23T18:35:29.604Z,41.8
2019-03-23T18:45:33.130Z,41.8
2019-03-23T18:55:36.654Z,41.8
2019-03-23T19:05:40.180Z,41.9
2019-03-23T19:15:43.704Z,42
2019-03-23T19:25:47.202Z,42
2019-03-23T19:35:50.706Z,42
2019-03-23T19:45:54.224Z,42.1
2019-03-23T19:55:57.735Z,42.2
2019-03-23T20:06:01.244Z,42.2
2019-03-23T20:16:04.758Z,42.3
2019-03-23T20:26:08.265Z,42.4
2019-03-23T20:36:11.801Z,42.4
2019-03-23T20:46:15.281Z,42.5
2019-03-23T20:56:18.813Z,42.5
2019-03-23T21:06:22.288Z,42.5
2019-03-23T21:16:25.838Z,42.5
2019-03-23T21:26:29.327Z,42.5
2019-03-23T21:36:32.834Z,42.5
2019-03-23T21:46:36.314Z,42.5
2019-03-23T21:56:39.840Z,42.4
2019-03-23T22:06:43.377Z,42.4
2019-03-23T22:16:46.913Z,42.4
2019-03-23T22:26:50.435Z,42.4
2019-03-23T22:36:53.947Z,42.5
2019-03-23T22:46:57.431Z,42.6
2019-03-23T22:57:00.954Z,42.7
2019-03-23T23:07:04.482Z,42.7
2019-03-23T23:17:08.023Z,42.7
2019-03-23T23:27:11.538Z,42.8
2019-03-23T23:37:15.062Z,42.8
2019-03-23T23:47:18.555Z,42.8
2019-03-23T23:57:22.113Z,42.7
